Time;durP1;ratioP1;P1;durP2;ratioP2;P2;SDS_P1;SDS_P2;PMS_P1;PMS_P2;Temp;Humidity;BMP_temperature;BMP_pressure;BME280_temperature;BME280_humidity;BME280_pressure;Samples;Min_cycle;Max_cycle;Signal;HPM_P1;HPM_P2
2023/10/12 00:01:59;;;;;;;21.75;12.88;;;;;;;;;;5012644;28;20194;-67
2023/10/12 00:04:24;;;;;;;24.40;13.13;;;;;;;;;;5010943;28;20190;-67
2023/10/12 00:06:51;;;;;;;25.07;13.60;;;;;;;;;;5012569;28;20179;-67
2023/10/12 00:09:24;;;;;;;25.65;14.88;;;;;;;;;;5009597;28;20983;-68
2023/10/12 00:11:58;;;;;;;26.48;13.02;;;;;;;;;;5011576;28;20562;-67
2023/10/12 00:14:28;;;;;;;25.70;13.88;;;;;;;;;;5012672;28;20253;-67
2023/10/12 00:16:54;;;;;;;24.98;13.60;;;;;;;;;;5012691;28;20708;-67
2023/10/12 00:19:20;;;;;;;25.58;14.48;;;;;;;;;;5010627;28;20290;-67
2023/10/12 00:21:46;;;;;;;27.52;15.18;;;;;;;;;;5010839;28;20186;-68
2023/10/12 00:24:13;;;;;;;27.20;14.95;;;;;;;;;;5008853;28;20182;-67
2023/10/12 00:26:41;;;;;;;30.08;16.00;;;;;;;;;;5001691;28;20187;-68
2023/10/12 00:29:07;;;;;;;27.02;15.85;;;;;;;;;;5010852;28;20257;-68
2023/10/12 00:31:32;;;;;;;26.75;14.90;;;;;;;;;;5012201;28;20179;-68
2023/10/12 00:33:57;;;;;;;28.55;15.50;;;;;;;;;;5006725;28;20260;-68
2023/10/12 00:36:24;;;;;;;28.35;15.45;;;;;;;;;;5012491;28;20171;-68
2023/10/12 00:38:52;;;;;;;36.78;16.63;;;;;;;;;;5012508;28;20704;-68
2023/10/12 00:41:17;;;;;;;28.10;15.35;;;;;;;;;;5010754;28;20175;-68
2023/10/12 00:43:53;;;;;;;25.75;16.48;;;;;;;;;;5012287;28;20178;-68
2023/10/12 00:46:33;;;;;;;27.05;15.75;;;;;;;;;;5009641;28;20175;-68
2023/10/12 00:51:53;;;;;;;27.48;15.52;;;;;;;;;;5012337;28;20187;-68
2023/10/12 00:57:05;;;;;;;25.17;14.10;;;;;;;;;;5012289;28;20170;-68
2023/10/12 00:59:34;;;;;;;28.75;12.93;;;;;;;;;;4998060;28;20290;-68
2023/10/12 01:02:08;;;;;;;25.85;13.50;;;;;;;;;;5015009;28;20187;-68
2023/10/12 01:04:33;;;;;;;32.35;13.82;;;;;;;;;;5013894;28;20197;-67
2023/10/12 01:06:59;;;;;;;25.65;12.77;;;;;;;;;;5017176;28;20670;-68
2023/10/12 01:09:39;;;;;;;28.92;13.95;;;;;;;;;;5017084;28;20226;-68
2023/10/12 01:12:06;;;;;;;27.08;13.27;;;;;;;;;;5012401;28;20171;-67
2023/10/12 01:14:32;;;;;;;19.77;11.60;;;;;;;;;;5016908;28;20175;-68
2023/10/12 01:17:04;;;;;;;20.70;9.90;;;;;;;;;;5017241;28;20174;-67
2023/10/12 01:19:33;;;;;;;21.05;10.52;;;;;;;;;;5014625;28;20195;-70
2023/10/12 01:22:07;;;;;;;22.15;10.45;;;;;;;;;;5011071;28;20269;-70
2023/10/12 01:24:32;;;;;;;19.52;10.13;;;;;;;;;;5027132;28;20207;-68
2023/10/12 01:26:59;;;;;;;20.05;9.48;;;;;;;;;;5014917;28;20668;-70
2023/10/12 01:29:25;;;;;;;24.98;10.88;;;;;;;;;;5015736;28;20217;-68
2023/10/12 01:32:38;;;;;;;18.05;9.70;;;;;;;;;;5015747;28;20175;-68
2023/10/12 01:34:40;;;;;;;23.17;10.07;;;;;;;;;;5005013;28;20190;-68
2023/10/12 01:37:21;;;;;;;26.25;9.65;;;;;;;;;;5019791;28;20261;-68
2023/10/12 01:40:09;;;;;;;21.30;8.27;;;;;;;;;;5017495;28;20609;-69
2023/10/12 01:42:56;;;;;;;19.05;8.73;;;;;;;;;;5005527;28;20222;-69
2023/10/12 01:48:05;;;;;;;16.80;7.70;;;;;;;;;;5014377;28;20207;-71
2023/10/12 01:50:32;;;;;;;23.15;8.50;;;;;;;;;;5016852;28;20642;-68
2023/10/12 01:52:58;;;;;;;20.83;8.82;;;;;;;;;;5013745;28;20197;-69
2023/10/12 01:55:30;;;;;;;18.55;6.85;;;;;;;;;;5016407;28;20167;-69
2023/10/12 01:57:58;;;;;;;18.50;7.40;;;;;;;;;;5016323;28;20720;-70
2023/10/12 02:00:39;;;;;;;18.63;8.48;;;;;;;;;;5002771;28;20183;-69
2023/10/12 02:03:20;;;;;;;23.40;7.97;;;;;;;;;;5005055;28;20625;-68
2023/10/12 02:05:58;;;;;;;24.38;7.90;;;;;;;;;;5006051;28;20246;-69
2023/10/12 02:08:26;;;;;;;20.17;7.97;;;;;;;;;;5007736;28;20554;-69
2023/10/12 02:10:57;;;;;;;19.70;7.43;;;;;;;;;;5011327;28;20726;-69
2023/10/12 02:13:23;;;;;;;21.35;7.55;;;;;;;;;;5007689;28;20191;-69
2023/10/12 02:15:52;;;;;;;14.38;8.07;;;;;;;;;;5006928;28;20194;-69
2023/10/12 02:18:18;;;;;;;14.75;8.23;;;;;;;;;;5005641;28;20199;-68
2023/10/12 02:20:58;;;;;;;22.63;8.02;;;;;;;;;;5013564;28;20186;-70
2023/10/12 02:23:24;;;;;;;13.27;7.03;;;;;;;;;;5003804;28;20680;-70
2023/10/12 02:25:52;;;;;;;17.55;8.20;;;;;;;;;;5005036;28;20182;-69
2023/10/12 02:28:22;;;;;;;20.77;7.97;;;;;;;;;;5016080;23;20190;-65
2023/10/12 02:30:53;;;;;;;14.32;8.02;;;;;;;;;;5020480;28;20182;-67
2023/10/12 02:33:23;;;;;;;14.75;7.65;;;;;;;;;;5020759;28;20171;-67
2023/10/12 02:35:49;;;;;;;20.35;7.15;;;;;;;;;;5020477;28;20186;-67
2023/10/12 02:38:15;;;;;;;22.25;8.10;;;;;;;;;;5021566;28;20292;-67
2023/10/12 02:40:41;;;;;;;15.55;7.95;;;;;;;;;;5022329;28;20288;-67
2023/10/12 02:43:09;;;;;;;14.43;7.60;;;;;;;;;;5020097;28;20174;-67
2023/10/12 02:45:40;;;;;;;16.40;7.68;;;;;;;;;;5018197;28;20214;-67
2023/10/12 02:48:06;;;;;;;19.65;7.70;;;;;;;;;;5019427;28;20210;-68
2023/10/12 02:50:42;;;;;;;14.88;7.13;;;;;;;;;;5023099;28;20182;-67
2023/10/12 02:53:11;;;;;;;19.75;8.10;;;;;;;;;;5025068;28;20181;-67
2023/10/12 02:55:49;;;;;;;12.30;6.40;;;;;;;;;;5018801;28;20566;-67
2023/10/12 03:03:17;;;;;;;13.70;7.20;;;;;;;;;;5028874;28;20174;-66
2023/10/12 03:05:47;;;;;;;18.48;6.75;;;;;;;;;;5030453;28;20255;-67
2023/10/12 03:08:12;;;;;;;17.20;8.45;;;;;;;;;;5021862;28;20190;-67
2023/10/12 03:10:46;;;;;;;15.68;7.85;;;;;;;;;;5029986;28;20173;-67
2023/10/12 03:13:26;;;;;;;18.50;8.30;;;;;;;;;;5030555;28;20179;-67
2023/10/12 03:15:59;;;;;;;19.33;7.95;;;;;;;;;;5025663;28;20273;-67
2023/10/12 03:18:27;;;;;;;19.17;8.18;;;;;;;;;;5034164;28;20332;-66
2023/10/12 03:21:14;;;;;;;21.60;8.65;;;;;;;;;;5025056;28;20186;-65
2023/10/12 03:23:40;;;;;;;18.20;8.35;;;;;;;;;;5021240;28;20186;-67
2023/10/12 03:26:17;;;;;;;17.27;7.88;;;;;;;;;;5035455;28;20182;-66
2023/10/12 03:28:44;;;;;;;17.63;7.72;;;;;;;;;;5017954;28;20237;-67
2023/10/12 03:31:18;;;;;;;18.20;7.43;;;;;;;;;;5027012;28;20178;-67
2023/10/12 03:33:46;;;;;;;14.40;6.55;;;;;;;;;;5019264;28;20170;-65
2023/10/12 03:36:25;;;;;;;18.45;7.82;;;;;;;;;;5024950;28;20171;-66
2023/10/12 03:39:06;;;;;;;19.52;7.45;;;;;;;;;;5018810;28;20686;-68
2023/10/12 03:42:41;;;;;;;16.25;7.40;;;;;;;;;;5020064;28;20224;-67
2023/10/12 03:47:14;;;;;;;15.00;7.63;;;;;;;;;;5026447;28;20785;-67
2023/10/12 03:52:20;;;;;;;13.40;7.70;;;;;;;;;;5030234;28;20186;-66
2023/10/12 03:57:44;;;;;;;20.30;7.78;;;;;;;;;;5018988;28;20174;-67
2023/10/12 04:02:45;;;;;;;21.40;8.68;;;;;;;;;;5019510;28;20204;-68
2023/10/12 04:18:32;;;;;;;14.75;8.63;;;;;;;;;;5018694;28;20197;-68
2023/10/12 04:20:57;;;;;;;18.42;7.95;;;;;;;;;;5026409;28;20185;-67
2023/10/12 04:28:38;;;;;;;27.15;9.00;;;;;;;;;;5030367;28;20229;-68
2023/10/12 04:41:27;;;;;;;19.40;9.43;;;;;;;;;;5020991;28;20182;-67
2023/10/12 04:43:54;;;;;;;16.25;8.88;;;;;;;;;;5018505;28;20218;-69
2023/10/12 04:51:39;;;;;;;15.10;9.20;;;;;;;;;;5016473;28;20228;-68
2023/10/12 04:54:16;;;;;;;17.58;8.57;;;;;;;;;;5018990;28;20202;-68
2023/10/12 04:56:51;;;;;;;16.52;9.00;;;;;;;;;;5018488;28;20214;-68
2023/10/12 04:59:26;;;;;;;16.08;8.40;;;;;;;;;;5020149;28;20289;-68
2023/10/12 05:02:22;;;;;;;18.50;9.75;;;;;;;;;;5017701;28;20183;-68
2023/10/12 05:09:37;;;;;;;14.77;8.20;;;;;;;;;;5030285;28;20748;-69
2023/10/12 05:12:03;;;;;;;22.55;8.90;;;;;;;;;;5029253;28;20187;-69
2023/10/12 05:14:30;;;;;;;12.48;8.02;;;;;;;;;;5028720;28;20773;-69
2023/10/12 05:16:55;;;;;;;17.90;8.10;;;;;;;;;;5019543;28;20193;-69
2023/10/12 05:19:20;;;;;;;14.93;8.27;;;;;;;;;;5021102;28;20206;-69
2023/10/12 05:21:45;;;;;;;16.17;8.60;;;;;;;;;;5018335;28;20182;-68
2023/10/12 05:24:11;;;;;;;14.02;8.05;;;;;;;;;;5016712;28;20175;-68
2023/10/12 05:26:37;;;;;;;8.27;3.78;;;;;;;;;;5017002;28;20258;-68
2023/10/12 05:29:27;;;;;;;4.97;2.75;;;;;;;;;;5033619;28;20221;-67
2023/10/12 05:37:16;;;;;;;1.20;0.90;;;;;;;;;;5021288;28;20190;-67
2023/10/12 05:39:47;;;;;;;0.85;0.70;;;;;;;;;;5015548;28;20197;-68
2023/10/12 05:42:14;;;;;;;0.95;0.68;;;;;;;;;;5017848;28;20269;-68
2023/10/12 05:44:42;;;;;;;1.00;0.90;;;;;;;;;;5035439;28;20182;-68
2023/10/12 05:47:11;;;;;;;0.82;0.52;;;;;;;;;;5022634;28;20174;-69
2023/10/12 05:49:36;;;;;;;0.82;0.40;;;;;;;;;;5018788;28;20206;-70
2023/10/12 05:52:05;;;;;;;0.98;0.60;;;;;;;;;;5023374;28;20200;-68
2023/10/12 05:54:31;;;;;;;1.17;0.77;;;;;;;;;;5018963;28;20171;-68
2023/10/12 05:56:56;;;;;;;0.98;0.60;;;;;;;;;;5021240;28;20187;-68
2023/10/12 05:59:22;;;;;;;1.17;0.70;;;;;;;;;;5024616;28;20285;-69
2023/10/12 06:01:48;;;;;;;1.02;0.63;;;;;;;;;;5023129;28;20563;-69
2023/10/12 06:04:19;;;;;;;2.03;0.50;;;;;;;;;;5021976;28;20178;-69
2023/10/12 06:06:44;;;;;;;1.25;0.77;;;;;;;;;;5026019;28;20621;-69
2023/10/12 06:09:13;;;;;;;1.85;0.80;;;;;;;;;;5028313;28;20202;-69
2023/10/12 06:11:44;;;;;;;1.23;0.77;;;;;;;;;;5025621;28;20320;-69
2023/10/12 06:14:09;;;;;;;0.63;0.60;;;;;;;;;;5023471;28;20261;-70
2023/10/12 06:16:40;;;;;;;1.90;0.90;;;;;;;;;;5023133;28;20309;-69
2023/10/12 06:19:05;;;;;;;0.82;0.70;;;;;;;;;;5021099;28;20649;-69
2023/10/12 06:21:32;;;;;;;1.40;0.63;;;;;;;;;;5034966;28;20194;-69
2023/10/12 06:24:05;;;;;;;0.55;0.40;;;;;;;;;;5028053;28;20319;-68
2023/10/12 06:26:34;;;;;;;0.60;0.60;;;;;;;;;;5031930;28;20175;-68
2023/10/12 06:32:02;;;;;;;1.40;0.82;;;;;;;;;;5031199;28;20188;-68
2023/10/12 06:34:29;;;;;;;4.55;1.05;;;;;;;;;;5031477;28;20670;-69
2023/10/12 06:36:58;;;;;;;3.63;0.98;;;;;;;;;;5032549;28;20182;-69
2023/10/12 06:46:46;;;;;;;4.57;0.85;;;;;;;;;;5032262;28;20603;-68
2023/10/12 06:49:21;;;;;;;2.30;0.98;;;;;;;;;;5030659;28;20240;-68
2023/10/12 06:52:10;;;;;;;4.18;1.08;;;;;;;;;;5031612;28;20185;-69
2023/10/12 07:02:30;;;;;;;4.05;1.52;;;;;;;;;;5030884;28;20189;-68
2023/10/12 07:04:56;;;;;;;2.50;1.38;;;;;;;;;;5036219;28;20181;-68
2023/10/12 07:07:26;;;;;;;1.63;1.35;;;;;;;;;;5030288;28;20204;-69
2023/10/12 07:09:52;;;;;;;3.90;1.20;;;;;;;;;;5031505;28;20213;-69
2023/10/12 07:12:18;;;;;;;1.60;0.98;;;;;;;;;;5030233;28;20174;-70
2023/10/12 07:14:46;;;;;;;3.70;1.33;;;;;;;;;;5027845;28;20257;-68
2023/10/12 07:17:12;;;;;;;1.50;1.00;;;;;;;;;;5031964;28;20181;-69
2023/10/12 07:19:55;;;;;;;1.15;0.90;;;;;;;;;;5031233;28;20206;-68
2023/10/12 07:22:20;;;;;;;0.85;0.73;;;;;;;;;;5032556;28;20180;-67
2023/10/12 07:24:46;;;;;;;1.45;0.80;;;;;;;;;;5029181;28;20178;-69
2023/10/12 07:27:13;;;;;;;2.67;0.80;;;;;;;;;;5030473;28;20183;-68
2023/10/12 07:29:44;;;;;;;1.83;1.08;;;;;;;;;;5032232;28;20630;-69
2023/10/12 07:34:54;;;;;;;1.75;1.00;;;;;;;;;;5031826;28;20656;-67
2023/10/12 07:37:20;;;;;;;1.42;0.85;;;;;;;;;;5030928;28;20261;-68
2023/10/12 07:39:45;;;;;;;3.70;0.90;;;;;;;;;;5031231;28;20220;-68
2023/10/12 07:42:14;;;;;;;2.38;1.23;;;;;;;;;;5032315;28;20184;-68
2023/10/12 07:44:42;;;;;;;1.80;1.40;;;;;;;;;;5031364;28;20201;-69
2023/10/12 07:47:18;;;;;;;1.67;1.13;;;;;;;;;;5041214;28;20205;-69
2023/10/12 07:49:50;;;;;;;1.98;1.20;;;;;;;;;;5030223;28;20210;-69
2023/10/12 07:55:04;;;;;;;2.45;1.38;;;;;;;;;;5031066;28;20170;-68
2023/10/12 07:57:35;;;;;;;2.40;1.15;;;;;;;;;;5027130;28;20658;-69
2023/10/12 08:00:29;;;;;;;1.58;1.35;;;;;;;;;;5029712;28;20640;-69
2023/10/12 08:13:05;;;;;;;2.22;1.55;;;;;;;;;;5027981;28;20186;-69
2023/10/12 08:15:49;;;;;;;2.15;1.55;;;;;;;;;;5029622;28;20173;-68
2023/10/12 08:19:07;;;;;;;3.47;2.28;;;;;;;;;;5027962;28;20178;-68
2023/10/12 08:21:01;;;;;;;6.05;2.22;;;;;;;;;;5030902;28;20603;-67
2023/10/12 08:23:26;;;;;;;6.63;2.60;;;;;;;;;;5029447;28;20182;-68
2023/10/12 08:25:57;;;;;;;3.40;1.92;;;;;;;;;;5030647;28;20178;-68
2023/10/12 08:31:00;;;;;;;3.13;1.23;;;;;;;;;;5029442;28;20252;-69
2023/10/12 08:39:07;;;;;;;1.95;1.52;;;;;;;;;;5030981;28;20178;-69
2023/10/12 08:44:19;;;;;;;1.40;0.98;;;;;;;;;;5029149;28;20232;-69
2023/10/12 08:46:56;;;;;;;0.98;0.80;;;;;;;;;;5029266;28;20170;-69
2023/10/12 08:52:07;;;;;;;0.50;0.50;;;;;;;;;;5029709;28;20186;-69
2023/10/12 08:54:40;;;;;;;3.22;0.60;;;;;;;;;;5029158;28;20171;-69
2023/10/12 08:57:19;;;;;;;1.63;1.20;;;;;;;;;;5028069;28;20491;-69
2023/10/12 08:59:57;;;;;;;1.38;0.75;;;;;;;;;;5030525;28;20720;-69
2023/10/12 09:02:22;;;;;;;0.52;0.47;;;;;;;;;;5030337;28;20185;-69
2023/10/12 09:04:51;;;;;;;0.90;0.63;;;;;;;;;;5030108;28;20614;-69
2023/10/12 09:07:19;;;;;;;0.70;0.63;;;;;;;;;;5029536;28;20185;-69
2023/10/12 09:10:02;;;;;;;0.95;0.82;;;;;;;;;;5031005;28;20220;-68
2023/10/12 09:12:27;;;;;;;1.13;0.80;;;;;;;;;;5027053;28;20539;-69
2023/10/12 09:14:55;;;;;;;1.67;0.95;;;;;;;;;;5030259;28;20253;-68
2023/10/12 09:17:27;;;;;;;2.63;1.67;;;;;;;;;;5030980;28;20183;-69
2023/10/12 09:19:57;;;;;;;1.67;1.20;;;;;;;;;;5029801;28;20617;-68
2023/10/12 09:22:29;;;;;;;1.50;0.82;;;;;;;;;;5029572;28;20178;-69
2023/10/12 09:24:59;;;;;;;3.53;1.00;;;;;;;;;;5033914;28;20171;-68
2023/10/12 09:27:36;;;;;;;1.85;1.25;;;;;;;;;;5035014;28;20609;-68
2023/10/12 09:30:15;;;;;;;1.40;0.88;;;;;;;;;;5032135;28;20592;-68
2023/10/12 09:32:56;;;;;;;2.50;1.15;;;;;;;;;;5034214;28;20257;-68
2023/10/12 09:35:29;;;;;;;1.10;1.00;;;;;;;;;;5033556;28;20185;-68
2023/10/12 09:37:54;;;;;;;2.80;1.15;;;;;;;;;;5032849;28;20170;-68
2023/10/12 09:40:38;;;;;;;1.33;0.95;;;;;;;;;;5030965;28;20539;-68
2023/10/12 09:43:07;;;;;;;2.60;1.08;;;;;;;;;;5030668;28;20645;-68
2023/10/12 09:45:41;;;;;;;1.90;1.48;;;;;;;;;;5033638;28;20178;-68
2023/10/12 09:48:11;;;;;;;2.15;1.40;;;;;;;;;;5027201;28;20232;-69
2023/10/12 09:50:37;;;;;;;4.28;2.28;;;;;;;;;;5031899;28;20577;-68
2023/10/12 09:53:21;;;;;;;4.78;2.15;;;;;;;;;;5031962;28;20186;-68
2023/10/12 09:56:02;;;;;;;2.78;1.73;;;;;;;;;;5029988;28;20201;-69
2023/10/12 09:58:32;;;;;;;2.78;1.33;;;;;;;;;;5033798;28;20190;-68
2023/10/12 10:01:07;;;;;;;1.88;1.10;;;;;;;;;;5033815;28;20198;-68
2023/10/12 10:03:40;;;;;;;2.00;1.33;;;;;;;;;;5033525;28;20667;-68
2023/10/12 10:06:19;;;;;;;3.35;1.50;;;;;;;;;;5032447;28;20193;-69
2023/10/12 10:08:51;;;;;;;2.80;1.92;;;;;;;;;;5034135;28;20229;-69
2023/10/12 10:11:23;;;;;;;2.60;1.70;;;;;;;;;;5035806;28;20551;-69
2023/10/12 10:13:49;;;;;;;2.13;1.38;;;;;;;;;;5035029;28;20693;-68
2023/10/12 10:16:17;;;;;;;3.30;1.65;;;;;;;;;;5032477;28;20668;-68
2023/10/12 10:18:45;;;;;;;1.88;1.67;;;;;;;;;;5033393;28;20206;-69
2023/10/12 10:21:11;;;;;;;3.25;1.70;;;;;;;;;;5031165;28;20257;-69
2023/10/12 10:23:39;;;;;;;3.97;1.73;;;;;;;;;;5047427;28;20181;-68
2023/10/12 10:26:23;;;;;;;3.65;2.03;;;;;;;;;;5031735;28;20201;-69
2023/10/12 10:28:55;;;;;;;2.63;1.85;;;;;;;;;;5032414;28;20676;-69
2023/10/12 10:31:40;;;;;;;3.25;2.00;;;;;;;;;;5025981;28;20649;-69
2023/10/12 10:34:06;;;;;;;3.50;2.58;;;;;;;;;;5027584;28;20550;-68
2023/10/12 10:36:35;;;;;;;2.80;2.03;;;;;;;;;;5032195;28;20175;-68
2023/10/12 10:39:28;;;;;;;3.60;2.08;;;;;;;;;;5032131;28;20221;-69
2023/10/12 10:41:54;;;;;;;3.05;2.60;;;;;;;;;;5028547;28;20645;-68
2023/10/12 10:44:26;;;;;;;3.30;2.40;;;;;;;;;;5032467;28;20189;-68
2023/10/12 10:46:54;;;;;;;3.25;2.50;;;;;;;;;;5028899;28;20182;-69
2023/10/12 10:49:20;;;;;;;5.40;2.60;;;;;;;;;;5028880;28;20244;-69
2023/10/12 10:52:02;;;;;;;3.30;2.60;;;;;;;;;;5031650;28;20289;-67
2023/10/12 10:54:27;;;;;;;3.95;2.42;;;;;;;;;;5029157;28;20784;-67
2023/10/12 10:56:54;;;;;;;5.85;3.13;;;;;;;;;;5033091;28;20186;-67
2023/10/12 10:59:19;;;;;;;3.35;2.75;;;;;;;;;;5033291;28;20749;-67
2023/10/12 11:01:51;;;;;;;7.30;3.45;;;;;;;;;;5030070;28;20261;-68
2023/10/12 11:06:58;;;;;;;4.13;3.03;;;;;;;;;;5030511;28;20662;-67
2023/10/12 11:09:31;;;;;;;4.65;3.47;;;;;;;;;;5032305;28;20198;-67
2023/10/12 11:11:59;;;;;;;4.10;2.90;;;;;;;;;;5031378;28;20182;-68
2023/10/12 11:14:25;;;;;;;4.80;3.60;;;;;;;;;;5032219;28;20176;-67
2023/10/12 11:16:51;;;;;;;4.88;3.70;;;;;;;;;;5039848;28;20200;-68
2023/10/12 11:19:19;;;;;;;6.97;4.53;;;;;;;;;;5032254;28;20221;-67
2023/10/12 11:21:53;;;;;;;4.55;3.67;;;;;;;;;;5031372;28;20182;-67
2023/10/12 11:24:19;;;;;;;5.75;3.88;;;;;;;;;;5032040;28;20181;-67
2023/10/12 11:26:52;;;;;;;4.75;3.45;;;;;;;;;;5031704;28;20715;-67
2023/10/12 11:29:18;;;;;;;6.47;4.32;;;;;;;;;;5031409;28;20245;-67
2023/10/12 11:31:46;;;;;;;7.97;4.28;;;;;;;;;;5031140;28;20628;-67
2023/10/12 11:34:23;;;;;;;6.32;3.58;;;;;;;;;;5030662;28;20185;-68
2023/10/12 11:36:55;;;;;;;6.18;4.25;;;;;;;;;;5031772;28;20290;-67
2023/10/12 11:39:21;;;;;;;5.85;4.22;;;;;;;;;;5031526;28;20198;-68
2023/10/12 11:42:03;;;;;;;9.20;5.75;;;;;;;;;;5031202;28;20261;-68
2023/10/12 11:44:36;;;;;;;11.80;5.55;;;;;;;;;;5029951;28;20285;-68
2023/10/12 11:47:06;;;;;;;8.73;6.25;;;;;;;;;;5039732;28;20179;-68
2023/10/12 11:49:45;;;;;;;18.20;6.80;;;;;;;;;;5031425;28;20292;-67
2023/10/12 11:52:15;;;;;;;15.25;7.28;;;;;;;;;;5030371;28;20173;-68
2023/10/12 11:54:41;;;;;;;8.80;6.47;;;;;;;;;;5031298;28;20201;-68
2023/10/12 11:57:07;;;;;;;14.45;7.53;;;;;;;;;;5032275;28;20650;-68
2023/10/12 11:59:35;;;;;;;11.77;6.95;;;;;;;;;;5032214;28;20198;-68
2023/10/12 12:02:07;;;;;;;10.30;7.68;;;;;;;;;;5030388;28;20178;-68
2023/10/12 12:04:39;;;;;;;8.63;6.45;;;;;;;;;;5028493;28;20238;-68
2023/10/12 12:07:05;;;;;;;11.68;8.07;;;;;;;;;;5031219;28;20182;-68
2023/10/12 12:09:30;;;;;;;9.68;7.43;;;;;;;;;;5030239;28;20693;-68
2023/10/12 12:11:55;;;;;;;14.05;8.07;;;;;;;;;;5031071;28;20264;-68
2023/10/12 12:14:21;;;;;;;12.57;7.65;;;;;;;;;;5031467;28;20175;-68
2023/10/12 12:16:47;;;;;;;17.08;10.13;;;;;;;;;;5030652;28;20175;-68
2023/10/12 12:19:18;;;;;;;12.35;8.63;;;;;;;;;;5029930;28;20280;-67
2023/10/12 12:21:45;;;;;;;15.40;8.57;;;;;;;;;;5028702;28;20186;-67
2023/10/12 12:24:24;;;;;;;15.45;10.32;;;;;;;;;;5029678;28;20216;-67
2023/10/12 12:26:52;;;;;;;17.77;12.10;;;;;;;;;;5030802;28;20181;-67
2023/10/12 12:29:21;;;;;;;19.08;11.20;;;;;;;;;;5033992;28;20754;-67
2023/10/12 12:31:47;;;;;;;17.17;10.43;;;;;;;;;;5030965;28;20253;-67
2023/10/12 12:34:21;;;;;;;18.08;11.82;;;;;;;;;;5028755;28;20262;-68
2023/10/12 12:36:49;;;;;;;14.32;9.73;;;;;;;;;;5029835;28;20170;-67
2023/10/12 12:39:21;;;;;;;19.10;10.27;;;;;;;;;;5029296;28;20251;-68
2023/10/12 12:41:47;;;;;;;19.40;12.10;;;;;;;;;;5031346;28;20182;-67
2023/10/12 12:44:13;;;;;;;18.35;11.45;;;;;;;;;;5028672;28;20567;-67
2023/10/12 12:46:38;;;;;;;23.00;12.27;;;;;;;;;;5031022;28;20185;-68
2023/10/12 12:49:03;;;;;;;20.45;13.20;;;;;;;;;;5030744;28;20221;-67
2023/10/12 12:51:29;;;;;;;16.30;11.15;;;;;;;;;;5031126;28;20182;-68
2023/10/12 12:53:54;;;;;;;19.35;11.63;;;;;;;;;;5030133;28;20178;-68
2023/10/12 12:56:21;;;;;;;19.77;11.98;;;;;;;;;;5032301;28;20178;-68
2023/10/12 12:58:47;;;;;;;20.45;12.48;;;;;;;;;;5034537;28;20289;-68
2023/10/12 13:01:26;;;;;;;20.75;12.93;;;;;;;;;;5034922;28;20286;-68
2023/10/12 13:03:57;;;;;;;28.73;13.90;;;;;;;;;;5032632;28;20213;-68
2023/10/12 13:06:23;;;;;;;15.43;10.88;;;;;;;;;;5032730;28;20186;-68
2023/10/12 13:08:48;;;;;;;24.05;13.60;;;;;;;;;;5034360;28;20224;-69
2023/10/12 13:11:21;;;;;;;23.45;12.70;;;;;;;;;;5034619;28;20167;-67
2023/10/12 13:13:47;;;;;;;19.70;11.95;;;;;;;;;;5032837;28;20204;-67
2023/10/12 13:16:13;;;;;;;12.35;8.93;;;;;;;;;;5034128;28;20177;-67
2023/10/12 13:18:38;;;;;;;10.68;5.80;;;;;;;;;;5034140;28;20649;-68
2023/10/12 13:21:06;;;;;;;7.55;5.57;;;;;;;;;;5034376;28;20177;-68
2023/10/12 13:23:33;;;;;;;10.43;6.30;;;;;;;;;;5033599;28;20642;-68
2023/10/12 13:26:05;;;;;;;10.43;5.82;;;;;;;;;;5033849;28;20183;-68
2023/10/12 13:28:30;;;;;;;12.05;6.45;;;;;;;;;;5033318;28;20198;-68
2023/10/12 13:30:56;;;;;;;10.15;6.65;;;;;;;;;;5033191;28;20194;-67
2023/10/12 13:33:23;;;;;;;14.38;9.55;;;;;;;;;;5033965;28;20658;-67
2023/10/12 13:35:55;;;;;;;13.45;9.88;;;;;;;;;;5033836;28;20178;-68
2023/10/12 13:38:20;;;;;;;12.05;9.77;;;;;;;;;;5031226;28;20621;-67
2023/10/12 13:40:50;;;;;;;15.68;10.57;;;;;;;;;;5033598;28;20233;-67
2023/10/12 13:43:18;;;;;;;14.18;9.75;;;;;;;;;;5032483;28;20563;-67
2023/10/12 13:45:49;;;;;;;12.13;9.63;;;;;;;;;;5033778;28;20170;-68
2023/10/12 13:48:20;;;;;;;11.57;8.85;;;;;;;;;;5030874;28;20244;-66
2023/10/12 13:51:08;;;;;;;12.02;8.05;;;;;;;;;;5031563;28;20205;-67
2023/10/12 13:53:37;;;;;;;13.15;8.32;;;;;;;;;;5033684;28;20605;-68
2023/10/12 13:56:04;;;;;;;15.77;10.43;;;;;;;;;;5032785;28;20170;-67
2023/10/12 13:58:32;;;;;;;10.20;8.60;;;;;;;;;;5033636;28;20208;-67
2023/10/12 14:01:02;;;;;;;13.38;8.77;;;;;;;;;;5033399;28;20178;-67
2023/10/12 14:03:34;;;;;;;11.02;8.90;;;;;;;;;;5032594;28;20200;-66
2023/10/12 14:06:00;;;;;;;12.20;8.45;;;;;;;;;;5031522;28;20178;-66
2023/10/12 14:08:28;;;;;;;9.25;7.72;;;;;;;;;;5032844;28;20255;-66
2023/10/12 14:10:54;;;;;;;14.27;9.68;;;;;;;;;;5033565;28;20182;-66
2023/10/12 14:13:20;;;;;;;11.15;8.68;;;;;;;;;;5036828;28;20190;-66
2023/10/12 14:15:46;;;;;;;14.63;10.13;;;;;;;;;;5034482;28;20240;-66
2023/10/12 14:18:16;;;;;;;13.35;10.13;;;;;;;;;;5033136;28;20174;-66
2023/10/12 14:20:42;;;;;;;15.50;11.50;;;;;;;;;;5032957;28;20301;-67
2023/10/12 14:23:07;;;;;;;13.95;10.70;;;;;;;;;;5033127;28;20415;-66
2023/10/12 14:25:43;;;;;;;17.42;11.80;;;;;;;;;;5032218;28;20170;-67
2023/10/12 14:28:16;;;;;;;17.70;12.57;;;;;;;;;;5030981;28;20264;-67
2023/10/12 14:30:41;;;;;;;17.88;12.70;;;;;;;;;;5052094;23;20225;-66
2023/10/12 14:33:07;;;;;;;21.38;13.10;;;;;;;;;;5032813;28;20274;-65
2023/10/12 14:35:35;;;;;;;20.38;13.95;;;;;;;;;;5031168;28;20271;-66
2023/10/12 14:38:02;;;;;;;20.20;13.10;;;;;;;;;;5032589;28;20262;-65
2023/10/12 14:40:29;;;;;;;18.00;12.88;;;;;;;;;;5048154;28;20200;-66
2023/10/12 14:43:05;;;;;;;19.95;13.63;;;;;;;;;;5052696;28;20175;-65
2023/10/12 14:45:31;;;;;;;18.48;12.40;;;;;;;;;;5043361;28;20184;-65
2023/10/12 14:47:59;;;;;;;18.88;13.25;;;;;;;;;;5051164;28;20182;-66
2023/10/12 14:50:24;;;;;;;19.05;14.48;;;;;;;;;;5049558;28;20206;-66
2023/10/12 14:52:52;;;;;;;23.00;14.65;;;;;;;;;;5052629;28;20247;-65
2023/10/12 14:55:17;;;;;;;17.52;13.15;;;;;;;;;;5049949;28;20208;-66
2023/10/12 14:57:44;;;;;;;22.25;15.65;;;;;;;;;;5052366;28;20174;-67
2023/10/12 15:00:10;;;;;;;22.98;15.82;;;;;;;;;;5052190;28;20201;-66
2023/10/12 15:02:36;;;;;;;18.92;14.05;;;;;;;;;;5050968;28;20201;-66
2023/10/12 15:05:01;;;;;;;23.48;14.93;;;;;;;;;;5055527;28;20209;-66
2023/10/12 15:07:27;;;;;;;21.73;15.23;;;;;;;;;;5051136;28;20180;-66
2023/10/12 15:09:52;;;;;;;19.75;14.20;;;;;;;;;;5051904;28;20209;-66
2023/10/12 15:12:17;;;;;;;20.10;15.52;;;;;;;;;;5051994;28;20177;-66
2023/10/12 15:14:46;;;;;;;23.42;15.25;;;;;;;;;;5052127;28;20637;-67
2023/10/12 15:17:14;;;;;;;25.20;16.08;;;;;;;;;;5051061;28;20657;-66
2023/10/12 15:19:39;;;;;;;20.58;14.25;;;;;;;;;;5050914;28;20229;-66
2023/10/12 15:22:06;;;;;;;22.48;15.90;;;;;;;;;;5051866;28;20611;-65
2023/10/12 15:24:37;;;;;;;24.15;15.05;;;;;;;;;;5046431;28;20209;-66
2023/10/12 15:27:02;;;;;;;18.27;14.77;;;;;;;;;;5052192;28;20321;-66
2023/10/12 15:29:27;;;;;;;18.88;14.50;;;;;;;;;;5050357;28;20654;-65
2023/10/12 15:31:53;;;;;;;23.10;16.63;;;;;;;;;;5051786;28;20174;-65
2023/10/12 15:34:18;;;;;;;20.67;15.27;;;;;;;;;;5050666;28;20180;-66
2023/10/12 15:36:44;;;;;;;24.77;15.43;;;;;;;;;;5051508;28;20174;-66
2023/10/12 15:39:15;;;;;;;22.95;16.30;;;;;;;;;;5051376;28;20193;-66
2023/10/12 15:41:41;;;;;;;21.13;15.50;;;;;;;;;;5050462;28;20174;-67
2023/10/12 15:44:08;;;;;;;22.60;16.00;;;;;;;;;;5048977;28;20188;-65
2023/10/12 15:46:33;;;;;;;20.02;14.85;;;;;;;;;;5051299;28;20177;-66
2023/10/12 15:49:00;;;;;;;20.77;14.75;;;;;;;;;;5049488;28;20581;-65
2023/10/12 15:51:25;;;;;;;19.20;13.85;;;;;;;;;;5051302;28;20179;-65
2023/10/12 15:53:50;;;;;;;21.60;14.90;;;;;;;;;;5047443;28;20228;-64
2023/10/12 15:56:16;;;;;;;20.42;14.98;;;;;;;;;;5050992;28;20208;-65
2023/10/12 15:58:41;;;;;;;17.90;13.70;;;;;;;;;;5051165;28;20192;-66
2023/10/12 16:01:06;;;;;;;17.98;13.18;;;;;;;;;;5051030;28;20177;-66
2023/10/12 16:03:31;;;;;;;17.23;13.55;;;;;;;;;;5049895;28;20249;-66
2023/10/12 16:05:57;;;;;;;20.13;15.27;;;;;;;;;;5047253;28;20201;-67
2023/10/12 16:08:22;;;;;;;18.10;13.45;;;;;;;;;;5051116;28;20212;-66
2023/10/12 16:10:48;;;;;;;24.13;15.93;;;;;;;;;;5049743;28;20205;-67
2023/10/12 16:13:14;;;;;;;20.77;13.35;;;;;;;;;;5047991;28;20217;-65
2023/10/12 16:15:39;;;;;;;18.52;14.70;;;;;;;;;;5048975;28;20174;-65
2023/10/12 16:18:06;;;;;;;21.67;16.15;;;;;;;;;;5051163;28;20564;-66
2023/10/12 16:20:32;;;;;;;20.98;16.08;;;;;;;;;;5045630;28;20267;-66
2023/10/12 16:22:58;;;;;;;21.63;16.15;;;;;;;;;;5050180;28;20173;-66
2023/10/12 16:25:23;;;;;;;22.40;16.73;;;;;;;;;;5048081;28;20664;-66
2023/10/12 16:27:49;;;;;;;18.55;15.40;;;;;;;;;;5050928;28;20177;-66
2023/10/12 16:30:15;;;;;;;21.52;15.75;;;;;;;;;;5050375;28;20220;-66
2023/10/12 16:32:42;;;;;;;20.45;14.57;;;;;;;;;;5049925;28;20181;-66
2023/10/12 16:35:09;;;;;;;22.48;15.02;;;;;;;;;;5050452;28;20173;-66
2023/10/12 16:37:34;;;;;;;18.88;15.48;;;;;;;;;;5048945;28;20223;-67
2023/10/12 16:39:59;;;;;;;21.08;15.93;;;;;;;;;;5050083;28;20205;-67
2023/10/12 16:42:24;;;;;;;21.73;15.90;;;;;;;;;;5046450;28;20672;-66
2023/10/12 16:44:50;;;;;;;22.85;14.95;;;;;;;;;;5049986;28;20180;-66